createdAt,value
2023-02-22T00:01:19.454Z,4.29
2023-02-22T00:03:58.494Z,4.25
2023-02-22T00:06:31.190Z,4.18
2023-02-22T00:09:00.358Z,4.19
2023-02-22T00:11:31.780Z,4.19
2023-02-22T00:13:59.121Z,4.17
2023-02-22T00:16:37.506Z,4.09
2023-02-22T00:19:06.113Z,4.05
2023-02-22T00:24:26.057Z,4.02
2023-02-22T00:27:00.300Z,3.93
2023-02-22T00:29:30.461Z,3.96
2023-02-22T00:32:00.769Z,3.93
2023-02-22T00:34:30.218Z,3.96
2023-02-22T00:37:01.856Z,3.89
2023-02-22T00:39:28.934Z,3.85
2023-02-22T00:41:58.759Z,3.82
2023-02-22T00:44:25.733Z,3.79
2023-02-22T00:46:54.919Z,3.76
2023-02-22T00:49:27.531Z,3.73
2023-02-22T00:51:57.909Z,3.69
2023-02-22T00:54:28.012Z,3.63
2023-02-22T00:56:55.648Z,3.63
2023-02-22T00:59:38.163Z,3.60
2023-02-22T01:02:05.429Z,3.59
2023-02-22T01:07:13.521Z,3.57
2023-02-22T01:12:13.648Z,3.49
2023-02-22T01:14:43.559Z,3.49
2023-02-22T01:17:15.249Z,3.49
2023-02-22T01:22:10.049Z,3.43
2023-02-22T01:24:39.470Z,3.43
2023-02-22T01:27:20.054Z,3.45
2023-02-22T01:29:50.462Z,3.47
2023-02-22T01:32:17.707Z,3.45
2023-02-22T01:34:45.390Z,3.46
2023-02-22T01:37:14.694Z,3.45
2023-02-22T01:39:49.454Z,3.40
2023-02-22T01:42:16.544Z,3.39
2023-02-22T01:44:46.245Z,3.37
2023-02-22T01:47:14.980Z,3.32
2023-02-22T01:49:48.807Z,3.25
2023-02-22T01:52:23.833Z,3.21
2023-02-22T01:54:59.368Z,3.25
2023-02-22T01:57:40.177Z,3.26
2023-02-22T02:00:13.046Z,3.25
2023-02-22T02:02:45.348Z,3.29
2023-02-22T02:05:15.204Z,3.29
2023-02-22T02:10:18.886Z,3.25
2023-02-22T02:12:54.325Z,3.29
2023-02-22T02:15:33.609Z,3.27
2023-02-22T02:18:11.322Z,3.23
2023-02-22T02:20:38.038Z,3.18
2023-02-22T02:23:17.339Z,3.19
2023-02-22T02:29:22.069Z,3.15
2023-02-22T02:31:53.956Z,3.16
2023-02-22T02:34:43.147Z,3.16
2023-02-22T02:37:36.188Z,3.19
2023-02-22T02:43:39.771Z,3.17
2023-02-22T02:48:45.618Z,3.10
2023-02-22T02:51:14.578Z,3.15
2023-02-22T02:53:46.998Z,3.13
2023-02-22T02:58:52.810Z,3.08
2023-02-22T03:04:24.816Z,3.17
2023-02-22T03:07:14.609Z,3.16
2023-02-22T03:10:08.790Z,3.07
2023-02-22T03:12:53.962Z,3.06
2023-02-22T03:15:48.772Z,3.03
2023-02-22T03:21:18.957Z,2.88
2023-02-22T03:23:56.812Z,2.77
2023-02-22T03:26:34.321Z,2.73
2023-02-22T03:29:05.218Z,2.72
2023-02-22T03:34:19.429Z,2.64
2023-02-22T03:36:52.685Z,2.62
2023-02-22T03:39:28.364Z,2.69
2023-02-22T03:41:56.590Z,2.70
2023-02-22T03:44:30.753Z,2.73
2023-02-22T03:47:04.718Z,2.72
2023-02-22T03:49:44.921Z,2.67
2023-02-22T03:52:12.911Z,2.63
2023-02-22T03:54:40.575Z,2.70
2023-02-22T03:57:14.426Z,2.66
2023-02-22T03:59:44.252Z,2.76
2023-02-22T04:02:11.817Z,2.72
2023-02-22T04:04:38.757Z,2.75
2023-02-22T04:07:05.634Z,2.69
2023-02-22T04:09:41.641Z,2.64
2023-02-22T04:12:08.730Z,2.56
2023-02-22T04:14:38.041Z,2.53
2023-02-22T04:17:05.565Z,2.54
2023-02-22T04:19:36.444Z,2.45
2023-02-22T04:22:10.068Z,2.46
2023-02-22T04:24:37.414Z,2.49
2023-02-22T04:27:07.084Z,2.54
2023-02-22T04:29:33.953Z,2.47
2023-02-22T04:32:00.805Z,2.40
2023-02-22T04:34:30.781Z,2.36
2023-02-22T04:36:57.664Z,2.38
2023-02-22T04:39:26.685Z,2.35
2023-02-22T04:44:23.561Z,2.38
2023-02-22T04:46:52.052Z,2.38
2023-02-22T04:49:26.349Z,2.39
2023-02-22T04:52:01.713Z,2.35
2023-02-22T04:54:33.762Z,2.39
2023-02-22T04:57:03.870Z,2.36
2023-02-22T04:59:30.845Z,2.31
2023-02-22T05:01:58.283Z,2.30
2023-02-22T05:04:25.349Z,2.30
2023-02-22T05:06:55.076Z,2.27
2023-02-22T05:09:26.172Z,2.25
2023-02-22T05:11:58.308Z,2.19
2023-02-22T05:14:30.467Z,2.19
2023-02-22T05:16:59.196Z,2.15
2023-02-22T05:19:26.344Z,2.16
2023-02-22T05:21:58.732Z,2.16
2023-02-22T05:24:29.162Z,2.21
2023-02-22T05:26:58.753Z,2.16
2023-02-22T05:29:29.395Z,2.13
2023-02-22T05:32:02.756Z,2.13
2023-02-22T05:34:34.099Z,2.15
2023-02-22T05:37:03.128Z,2.15
2023-02-22T05:39:31.638Z,2.06
2023-02-22T05:42:05.985Z,2.04
2023-02-22T05:44:35.966Z,1.96
2023-02-22T05:47:05.618Z,1.93
2023-02-22T05:49:44.313Z,1.85
2023-02-22T05:52:13.306Z,1.86
2023-02-22T05:54:40.376Z,1.82
2023-02-22T05:57:07.950Z,1.87
2023-02-22T05:59:37.188Z,1.89
2023-02-22T06:02:03.971Z,1.85
2023-02-22T06:04:30.667Z,1.81
2023-02-22T06:06:57.356Z,1.78
2023-02-22T06:09:23.996Z,1.75
2023-02-22T06:14:17.384Z,1.77
2023-02-22T06:19:10.810Z,1.86
2023-02-22T06:21:37.381Z,1.83
2023-02-22T06:24:05.327Z,1.83
2023-02-22T06:28:58.719Z,1.78
2023-02-22T06:31:25.388Z,1.77
2023-02-22T06:36:18.615Z,1.81
2023-02-22T06:43:38.530Z,1.95
2023-02-22T06:46:05.440Z,1.93
2023-02-22T06:50:59.473Z,1.92
2023-02-22T06:53:28.731Z,1.78
2023-02-22T06:55:58.054Z,1.85
2023-02-22T06:58:25.473Z,1.90
2023-02-22T07:03:23.063Z,1.98
2023-02-22T07:08:16.390Z,1.97
2023-02-22T07:13:09.581Z,2.07
2023-02-22T07:15:36.701Z,2.13
2023-02-22T07:18:03.926Z,2.19
2023-02-22T07:20:31.883Z,2.28
2023-02-22T07:22:58.651Z,2.39
2023-02-22T07:25:25.846Z,2.48
2023-02-22T07:30:34.229Z,2.80
2023-02-22T07:33:03.167Z,2.92
2023-02-22T07:35:36.647Z,3.06
2023-02-22T07:38:08.032Z,3.17
2023-02-22T07:40:35.453Z,3.20
2023-02-22T07:43:15.474Z,3.27
2023-02-22T07:45:42.418Z,3.38
2023-02-22T07:48:09.207Z,3.40
2023-02-22T07:50:36.344Z,3.47
2023-02-22T07:53:07.918Z,3.59
2023-02-22T07:55:34.852Z,3.73
2023-02-22T07:58:07.806Z,3.88
2023-02-22T08:00:40.038Z,3.94
2023-02-22T08:03:09.033Z,3.95
2023-02-22T08:05:39.465Z,3.99
2023-02-22T08:08:07.208Z,4.18
2023-02-22T08:10:35.816Z,4.30
2023-02-22T08:13:03.769Z,4.37
2023-02-22T08:15:33.136Z,4.37
2023-02-22T08:18:01.304Z,4.41
2023-02-22T08:20:29.580Z,4.51
2023-02-22T08:22:58.302Z,4.62
2023-02-22T08:25:27.928Z,4.74
2023-02-22T08:28:01.116Z,4.90
2023-02-22T08:30:29.736Z,5.05
2023-02-22T08:32:59.687Z,5.16
2023-02-22T08:35:27.650Z,5.29
2023-02-22T08:37:58.604Z,5.43
2023-02-22T08:40:28.271Z,5.57
2023-02-22T08:42:55.022Z,5.69
2023-02-22T08:45:21.627Z,5.88
2023-02-22T08:50:23.218Z,6.17
2023-02-22T08:55:23.870Z,6.43
2023-02-22T09:00:19.743Z,6.80
2023-02-22T09:05:18.924Z,7.11
2023-02-22T09:10:18.150Z,7.43
2023-02-22T09:15:18.213Z,7.77
2023-02-22T09:20:12.778Z,8.25
2023-02-22T09:22:41.391Z,8.53
2023-02-22T09:25:16.738Z,8.64
2023-02-22T09:27:44.281Z,8.85
2023-02-22T09:30:37.742Z,8.97
2023-02-22T09:33:12.116Z,9.24
2023-02-22T09:38:10.378Z,9.60
2023-02-22T09:40:45.060Z,9.75
2023-02-22T09:46:02.568Z,10.19
2023-02-22T09:53:41.721Z,10.56
2023-02-22T10:01:24.654Z,10.70
2023-02-22T10:04:23.793Z,10.74
2023-02-22T10:07:06.246Z,10.92
2023-02-22T10:12:23.203Z,11.46
2023-02-22T10:15:16.164Z,11.58
2023-02-22T10:17:57.019Z,11.69
2023-02-22T10:20:55.264Z,11.64
2023-02-22T10:24:16.501Z,11.76
2023-02-22T10:26:45.312Z,11.97
2023-02-22T10:29:22.607Z,12.08
2023-02-22T10:31:57.304Z,12.29
2023-02-22T10:34:28.454Z,12.52
2023-02-22T10:37:03.077Z,12.68
2023-02-22T10:39:38.902Z,12.63
2023-02-22T10:42:07.999Z,12.71
2023-02-22T10:44:42.666Z,12.77
2023-02-22T10:47:12.498Z,12.77
2023-02-22T10:52:22.349Z,12.95
2023-02-22T10:54:51.740Z,13.13
2023-02-22T10:57:25.107Z,13.30
2023-02-22T10:59:52.250Z,13.48
2023-02-22T11:02:23.918Z,13.63
2023-02-22T11:04:53.688Z,13.75
2023-02-22T11:07:35.044Z,13.63
2023-02-22T11:10:08.848Z,13.54
2023-02-22T11:12:42.442Z,13.55
2023-02-22T11:15:24.262Z,13.52
2023-02-22T11:17:56.134Z,13.69
2023-02-22T11:20:27.163Z,14.08
2023-02-22T11:23:02.857Z,14.38
2023-02-22T11:25:36.068Z,14.51
2023-02-22T11:28:17.609Z,14.70
2023-02-22T11:33:23.628Z,15.01
2023-02-22T11:36:02.468Z,15.02
2023-02-22T11:41:26.349Z,14.93
2023-02-22T11:43:54.366Z,15.15
2023-02-22T11:46:30.278Z,15.09
2023-02-22T11:49:06.523Z,15.17
2023-02-22T11:51:46.361Z,15.12
2023-02-22T11:54:30.204Z,15.14
2023-02-22T11:57:16.097Z,15.18
2023-02-22T12:00:07.462Z,15.09
2023-02-22T12:05:37.251Z,15.16
2023-02-22T12:08:20.762Z,15.19
2023-02-22T12:11:07.101Z,15.13
2023-02-22T12:14:03.328Z,15.14
2023-02-22T12:16:44.252Z,15.00
2023-02-22T12:19:49.076Z,15.15
2023-02-22T12:22:15.650Z,15.40
2023-02-22T12:27:30.694Z,15.79
2023-02-22T12:30:13.849Z,15.85
2023-02-22T12:32:46.722Z,15.93
2023-02-22T12:35:16.740Z,16.04
2023-02-22T12:38:01.902Z,16.21
2023-02-22T12:40:46.157Z,16.19
2023-02-22T12:43:12.720Z,16.25
2023-02-22T12:45:41.949Z,16.36
2023-02-22T12:48:18.377Z,16.36
2023-02-22T12:50:48.337Z,16.45
2023-02-22T12:53:25.832Z,16.47
2023-02-22T12:56:16.043Z,16.55
2023-02-22T12:58:54.268Z,16.57
2023-02-22T13:01:24.744Z,16.58
2023-02-22T13:06:26.475Z,16.36
2023-02-22T13:11:42.009Z,16.28
2023-02-22T13:14:39.736Z,16.20
2023-02-22T13:17:21.877Z,16.17
2023-02-22T13:20:22.561Z,16.20
2023-02-22T13:23:34.529Z,16.35
2023-02-22T13:29:16.662Z,16.52
2023-02-22T13:32:05.080Z,16.63
2023-02-22T13:34:44.168Z,16.69
2023-02-22T13:37:23.458Z,16.62
2023-02-22T13:40:16.991Z,16.76
2023-02-22T13:42:58.622Z,16.86
2023-02-22T13:45:43.589Z,16.96
2023-02-22T13:48:38.026Z,16.69
2023-02-22T13:51:15.265Z,16.63
2023-02-22T13:54:01.801Z,16.64
2023-02-22T13:56:31.421Z,16.45
2023-02-22T13:59:03.603Z,16.39
2023-02-22T14:01:41.958Z,16.22
2023-02-22T14:04:29.169Z,16.07
2023-02-22T14:07:33.814Z,15.76
2023-02-22T14:10:01.858Z,15.71
2023-02-22T14:12:35.356Z,15.68
2023-02-22T14:15:26.793Z,15.58
2023-02-22T14:18:03.859Z,15.58
2023-02-22T14:20:36.997Z,15.59
2023-02-22T14:23:23.710Z,15.46
2023-02-22T14:25:51.510Z,15.34
2023-02-22T14:28:43.252Z,15.36
2023-02-22T14:31:25.494Z,15.25
2023-02-22T14:34:07.378Z,15.20
2023-02-22T14:36:42.478Z,15.22
2023-02-22T14:39:38.418Z,15.17
2023-02-22T14:42:28.380Z,15.12
2023-02-22T14:45:00.493Z,15.15
2023-02-22T14:47:32.060Z,15.04
2023-02-22T14:50:13.570Z,14.90
2023-02-22T14:52:47.635Z,14.90
2023-02-22T14:55:26.037Z,14.80
2023-02-22T14:58:18.777Z,14.67
2023-02-22T15:00:48.137Z,14.63
2023-02-22T15:03:37.419Z,14.54
2023-02-22T15:06:28.157Z,14.61
2023-02-22T15:09:14.432Z,14.60
2023-02-22T15:11:44.326Z,14.57
2023-02-22T15:14:35.615Z,14.56
2023-02-22T15:17:17.657Z,14.56
2023-02-22T15:19:48.616Z,14.53
2023-02-22T15:22:32.632Z,14.49
2023-02-22T15:27:39.942Z,14.45
2023-02-22T15:30:20.870Z,14.50
2023-02-22T15:33:03.088Z,14.54
2023-02-22T15:41:08.389Z,14.49
2023-02-22T15:43:35.362Z,14.48
2023-02-22T15:46:06.182Z,14.45
2023-02-22T15:48:35.755Z,14.41
2023-02-22T15:53:51.622Z,14.26
2023-02-22T15:56:46.117Z,14.21
2023-02-22T15:59:31.011Z,14.12
2023-02-22T16:02:00.694Z,14.04
2023-02-22T16:04:31.712Z,13.98
2023-02-22T16:09:40.226Z,13.94
2023-02-22T16:12:23.548Z,14.02
2023-02-22T16:14:56.883Z,13.90
2023-02-22T16:18:01.506Z,13.82
2023-02-22T16:20:30.925Z,13.64
2023-02-22T16:22:58.126Z,13.54
2023-02-22T16:25:34.113Z,13.42
2023-02-22T16:30:37.582Z,13.19
2023-02-22T16:33:12.182Z,13.07
2023-02-22T16:35:55.784Z,12.97
2023-02-22T16:38:29.520Z,12.88
2023-02-22T16:40:59.175Z,12.85
2023-02-22T16:43:29.928Z,12.77
2023-02-22T16:45:57.913Z,12.69
2023-02-22T16:48:28.398Z,12.63
2023-02-22T16:51:07.424Z,12.57
2023-02-22T16:53:53.477Z,12.50
2023-02-22T16:56:36.286Z,12.46
2023-02-22T17:05:04.676Z,12.33
2023-02-22T17:07:57.716Z,12.29
2023-02-22T17:10:30.606Z,12.24
2023-02-22T17:13:30.882Z,12.20
2023-02-22T17:16:11.453Z,12.16
2023-02-22T17:19:42.923Z,12.09
2023-02-22T17:23:05.701Z,12.07
2023-02-22T17:26:09.620Z,11.99
2023-02-22T17:28:59.334Z,11.95
2023-02-22T17:37:56.279Z,11.81
2023-02-22T17:40:27.560Z,11.78
2023-02-22T17:43:02.080Z,11.78
2023-02-22T17:45:34.670Z,11.74
2023-02-22T17:48:08.452Z,11.74
2023-02-22T17:50:46.673Z,11.71
2023-02-22T17:53:24.767Z,11.70
2023-02-22T17:56:22.632Z,11.72
2023-02-22T17:58:54.862Z,11.70
2023-02-22T18:01:30.057Z,11.71
2023-02-22T18:04:04.093Z,11.70
2023-02-22T18:06:37.040Z,11.69
2023-02-22T18:11:54.684Z,11.65
2023-02-22T18:14:34.269Z,11.66
2023-02-22T18:17:05.835Z,11.65
2023-02-22T18:20:28.071Z,11.64
2023-02-22T18:23:45.989Z,11.58
2023-02-22T18:26:38.094Z,11.52
2023-02-22T18:29:20.189Z,11.50
2023-02-22T18:36:34.331Z,11.41
2023-02-22T18:40:09.162Z,11.36
2023-02-22T18:54:05.597Z,11.44
2023-02-22T18:57:22.892Z,11.35
2023-02-22T18:59:55.626Z,11.41
2023-02-22T19:02:53.731Z,11.34
2023-02-22T19:05:33.096Z,11.43
2023-02-22T19:08:11.404Z,11.37
2023-02-22T19:10:39.100Z,11.33
2023-02-22T19:13:19.943Z,11.41
2023-02-22T19:15:49.384Z,11.32
2023-02-22T19:18:40.692Z,11.26
2023-02-22T19:21:51.671Z,11.24
2023-02-22T19:24:24.397Z,11.29
2023-02-22T19:27:32.904Z,11.23
2023-02-22T19:30:00.507Z,11.24
2023-02-22T19:32:42.055Z,11.28
2023-02-22T19:37:53.932Z,11.14
2023-02-22T19:40:32.494Z,11.03
2023-02-22T19:43:02.631Z,10.93
2023-02-22T19:45:32.980Z,10.84
2023-02-22T19:48:03.952Z,10.86
2023-02-22T19:50:31.010Z,10.93
2023-02-22T19:53:07.686Z,10.95
2023-02-22T19:56:05.818Z,10.88
2023-02-22T19:58:37.927Z,10.82
2023-02-22T20:01:13.909Z,10.76
2023-02-22T20:03:52.368Z,10.80
2023-02-22T20:06:33.358Z,10.83
2023-02-22T20:09:12.742Z,10.81
2023-02-22T20:11:42.977Z,10.84
2023-02-22T20:14:17.650Z,10.83
2023-02-22T20:16:47.607Z,10.70
2023-02-22T20:19:19.904Z,10.75
2023-02-22T20:24:47.298Z,10.69
2023-02-22T20:27:19.766Z,10.64
2023-02-22T20:29:51.040Z,10.63
2023-02-22T20:34:55.226Z,10.54
2023-02-22T20:37:25.443Z,10.53
2023-02-22T20:39:55.126Z,10.43
2023-02-22T20:44:54.891Z,10.47
2023-02-22T20:47:22.132Z,10.52
2023-02-22T20:49:52.984Z,10.54
2023-02-22T20:52:25.321Z,10.40
2023-02-22T20:54:54.006Z,10.26
2023-02-22T20:57:38.300Z,10.23
2023-02-22T21:00:16.912Z,10.16
2023-02-22T21:02:51.928Z,10.17
2023-02-22T21:05:28.692Z,10.21
2023-02-22T21:08:08.255Z,10.14
2023-02-22T21:10:43.620Z,10.18
2023-02-22T21:13:14.019Z,10.06
2023-02-22T21:15:47.088Z,10.10
2023-02-22T21:20:42.997Z,10.14
2023-02-22T21:26:01.904Z,9.90
2023-02-22T21:28:42.552Z,9.91
2023-02-22T21:31:32.022Z,9.85
2023-02-22T21:34:00.426Z,9.90
2023-02-22T21:36:32.052Z,9.86
2023-02-22T21:39:18.063Z,9.82
2023-02-22T21:41:53.635Z,9.78
2023-02-22T21:44:28.689Z,9.76
2023-02-22T21:46:55.839Z,9.73
2023-02-22T21:49:23.262Z,9.75
2023-02-22T21:51:51.744Z,9.76
2023-02-22T21:54:22.002Z,9.74
2023-02-22T21:56:52.063Z,9.71
2023-02-22T21:59:23.479Z,9.69
2023-02-22T22:01:58.134Z,9.74
2023-02-22T22:04:29.653Z,9.77
2023-02-22T22:06:58.789Z,9.75
2023-02-22T22:09:29.113Z,9.86
2023-02-22T22:11:58.710Z,9.90
2023-02-22T22:14:30.072Z,9.92
2023-02-22T22:17:01.028Z,9.87
2023-02-22T22:19:29.427Z,9.91
2023-02-22T22:26:54.691Z,9.84
2023-02-22T22:29:23.618Z,9.84
2023-02-22T22:31:57.773Z,9.83
2023-02-22T22:34:24.531Z,9.78
2023-02-22T22:36:51.501Z,9.78
2023-02-22T22:39:20.914Z,9.78
2023-02-22T22:41:52.129Z,9.77
2023-02-22T22:44:22.177Z,9.75
2023-02-22T22:46:50.381Z,9.76
2023-02-22T22:51:47.264Z,9.67
2023-02-22T22:54:14.302Z,9.67
2023-02-22T22:56:41.138Z,9.66
2023-02-22T22:59:09.720Z,9.66
2023-02-22T23:01:44.314Z,9.74
2023-02-22T23:06:49.917Z,9.65
2023-02-22T23:09:30.313Z,9.66
2023-02-22T23:12:08.760Z,9.69
2023-02-22T23:14:38.544Z,9.68
2023-02-22T23:19:47.077Z,9.64
2023-02-22T23:24:41.193Z,9.65
2023-02-22T23:27:07.911Z,9.74
2023-02-22T23:29:39.469Z,9.71
2023-02-22T23:32:10.599Z,9.72
2023-02-22T23:34:40.967Z,9.59
2023-02-22T23:37:10.198Z,9.51
2023-02-22T23:39:37.178Z,9.49
2023-02-22T23:42:04.048Z,9.55
2023-02-22T23:44:30.897Z,9.43
2023-02-22T23:49:38.981Z,9.45
2023-02-22T23:52:06.757Z,9.38
2023-02-22T23:54:37.614Z,9.27
2023-02-22T23:57:05.326Z,9.25
2023-02-22T23:59:33.505Z,9.26
